James Turecamo — WDC7565 — position and weather

sailwx.info

Track history (hours):
 
Tides and Currents Weather Stations Pressure Air Temp Water Temp Dewpoint Dewpoint Depression Visibility Wind Speed Wind Dir Waves Ship Positions

James Turecamo

Owner: Moran Towing Corporation, New Canaan, CT. More information available from US FCC via Universal Licensing System and Coast Guard Vessel Documentation Center.

Last reported at 2016-Sep-30 20:24 UTC. Time now 2016-Sep-30 23:46 UTC.
Position N 40°38' W 074°08'.

Length 27 m; draft 4.5 m.

Type: Tug. MMSI: 367073380.

Date/timePositionNaut miles runAvg speedWind from/ knotsBaromVisibWave heightAir tempDewpointWater temp
2016-Sep-30 20:24N 40°38' W 074°08'0 0.0
2016-Sep-30 17:33N 40°38' W 074°08'0 0.0
2016-Sep-30 16:23N 40°38' W 074°08'0 0.0
2016-Sep-30 14:33N 40°38' W 074°08'0 0.0
2016-Sep-30 13:32N 40°38' W 074°08'0 0.0
2016-Sep-30 10:30N 40°38' W 074°08'0 0.0
2016-Sep-30 08:13N 40°38' W 074°08'0 0.0
2016-Sep-30 06:33N 40°38' W 074°08'0 0.0
2016-Sep-30 03:31N 40°38' W 074°08'0 0.0
2016-Sep-30 02:26N 40°38' W 074°08'0 0.0
2016-Sep-29 23:33N 40°38' W 074°08'0 0.0
2016-Sep-29 21:32N 40°38' W 074°08'0 0.0
2016-Sep-29 20:32N 40°38' W 074°08'0 0.0
2016-Sep-29 19:33N 40°38' W 074°08'1 0.4
2016-Sep-29 16:33N 40°39' W 074°09'2 1.5
2016-Sep-29 15:33N 40°39' W 074°07'0 0.1
2016-Sep-29 13:30N 40°39' W 074°07'2 0.5
2016-Sep-29 08:33N 40°39' W 074°04'3 2.8
2016-Sep-29 07:32N 40°38' W 074°08'0 0.0
2016-Sep-29 00:14N 40°38' W 074°08'0 0.0
2016-Sep-28 19:04N 40°38' W 074°08'1 0.2
2016-Sep-28 16:25N 40°39' W 074°07'0 0.0
2016-Sep-28 15:13N 40°39' W 074°07'0 0.0
2016-Sep-28 12:25N 40°39' W 074°07'1 0.1
2016-Sep-28 08:28N 40°38' W 074°08'0 0.0
2016-Sep-28 03:19N 40°38' W 074°08'0 0.0
2016-Sep-28 02:25N 40°38' W 074°08'0 0.1
2016-Sep-28 01:26N 40°38' W 074°08'3 1.7
2016-Sep-27 23:32N 40°42' W 074°08'3 0.8
2016-Sep-27 19:20N 40°38' W 074°08'11 2.2
2016-Sep-27 14:33N 40°47' W 073°60'4 0.3
2016-Sep-27 00:33N 40°48' W 074°05'9 2.2
2016-Sep-26 20:33N 40°39' W 074°09'1 1.1
2016-Sep-26 19:32N 40°38' W 074°08'0 0.0
2016-Sep-26 15:33N 40°38' W 074°08'0 0.0
2016-Sep-26 13:33N 40°38' W 074°08'3 1.3
2016-Sep-26 11:33N 40°39' W 074°11'7 0.7
2016-Sep-26 01:32N 40°32' W 074°15'4 0.9
2016-Sep-25 21:32N 40°35' W 074°12'5 1.2
2016-Sep-25 17:29N 40°38' W 074°08'0 0.0
2016-Sep-25 16:33N 40°38' W 074°08'0 0.0
2016-Sep-25 15:33N 40°38' W 074°08'0 0.0
2016-Sep-25 14:34N 40°38' W 074°08'0 0.0
2016-Sep-25 12:33N 40°38' W 074°08'0 0.5
2016-Sep-25 11:33N 40°39' W 074°08'8 3.6
2016-Sep-25 09:17N 40°32' W 074°15'1 0.7
2016-Sep-25 07:09N 40°33' W 074°14'8 3.1
2016-Sep-25 04:33N 40°39' W 074°07'5 1.2
2016-Sep-25 00:34N 40°41' W 074°01'5 2.7
2016-Sep-24 22:33N 40°46' W 073°57'0 0.0
2016-Sep-24 21:33N 40°46' W 073°57'6 3.1
2016-Sep-24 19:33N 40°40' W 074°00'1 1.0
2016-Sep-24 18:33N 40°39' W 074°01'5 4.9
2016-Sep-24 17:33N 40°38' W 074°08'0 0.0
2016-Sep-24 16:29N 40°38' W 074°08'1 0.3
2016-Sep-24 12:33N 40°39' W 074°09'2 1.1
2016-Sep-24 10:33N 40°39' W 074°06'1 1.5
2016-Sep-24 09:32N 40°38' W 074°08'0 0.0
2016-Sep-24 03:33N 40°38' W 074°08'0 0.0
2016-Sep-24 02:33N 40°38' W 074°08'2 2.2
2016-Sep-24 01:33N 40°39' W 074°05'1 1.4
2016-Sep-24 00:33N 40°39' W 074°07'2 0.5
2016-Sep-23 19:33N 40°40' W 074°04'2 1.2
2016-Sep-23 17:33N 40°39' W 074°07'1 0.7
2016-Sep-23 16:33N 40°38' W 074°08'0 0.0
2016-Sep-23 15:31N 40°38' W 074°08'0 0.0
2016-Sep-23 13:33N 40°38' W 074°08'0 0.1
2016-Sep-23 09:33N 40°39' W 074°08'0 0.1
2016-Sep-23 06:33N 40°38' W 074°08'0 0.0
2016-Sep-23 04:33N 40°38' W 074°08'4 3.5
2016-Sep-23 03:33N 40°42' W 074°09'0 0.1
2016-Sep-23 02:33N 40°42' W 074°09'5 4.9
2016-Sep-23 01:33N 40°38' W 074°12'3 3.5
2016-Sep-23 00:33N 40°38' W 074°08'0 0.0
2016-Sep-22 23:33N 40°38' W 074°08'2 0.5
2016-Sep-22 20:33N 40°40' W 074°08'2 0.2
2016-Sep-22 12:31N 40°38' W 074°08'0 0.0
2016-Sep-22 04:32N 40°38' W 074°08'5 4.4
2016-Sep-22 03:25N 40°35' W 074°13'8 2.9
2016-Sep-22 00:33N 40°36' W 074°02'5 5.2
2016-Sep-21 23:32N 40°38' W 074°08'3 3.1
2016-Sep-21 22:33N 40°41' W 074°09'3 0.5
2016-Sep-21 16:33N 40°39' W 074°11'3 0.4
2016-Sep-21 09:33N 40°38' W 074°08'0 0.0
2016-Sep-21 08:33N 40°38' W 074°08'0 0.0
2016-Sep-21 05:33N 40°38' W 074°08'0 0.0
2016-Sep-21 03:33N 40°38' W 074°08'2 1.6
2016-Sep-21 02:33N 40°39' W 074°06'  
Track history (hours):
 
Tides and Currents Weather Stations Pressure Air Temp Water Temp Dewpoint Dewpoint Depression Visibility Wind Speed Wind Dir Waves Ship Positions

James Turecamo

Owner: Moran Towing Corporation, New Canaan, CT. More information available from US FCC via Universal Licensing System and Coast Guard Vessel Documentation Center.

Last reported at 2016-Sep-30 20:24 UTC. Time now 2016-Sep-30 23:46 UTC.
Position N 40°38' W 074°08'.

Length 27 m; draft 4.5 m.

Type: Tug. MMSI: 367073380.

Date/timePositionNaut miles runAvg speedWind from/ knotsBaromVisibWave heightAir tempDewpointWater temp
2016-Sep-30 20:24N 40°38' W 074°08'0 0.0
2016-Sep-30 17:33N 40°38' W 074°08'0 0.0
2016-Sep-30 16:23N 40°38' W 074°08'0 0.0
2016-Sep-30 14:33N 40°38' W 074°08'0 0.0
2016-Sep-30 13:32N 40°38' W 074°08'0 0.0
2016-Sep-30 10:30N 40°38' W 074°08'0 0.0
2016-Sep-30 08:13N 40°38' W 074°08'0 0.0
2016-Sep-30 06:33N 40°38' W 074°08'0 0.0
2016-Sep-30 03:31N 40°38' W 074°08'0 0.0
2016-Sep-30 02:26N 40°38' W 074°08'0 0.0
2016-Sep-29 23:33N 40°38' W 074°08'0 0.0
2016-Sep-29 21:32N 40°38' W 074°08'0 0.0
2016-Sep-29 20:32N 40°38' W 074°08'0 0.0
2016-Sep-29 19:33N 40°38' W 074°08'1 0.4
2016-Sep-29 16:33N 40°39' W 074°09'2 1.5
2016-Sep-29 15:33N 40°39' W 074°07'0 0.1
2016-Sep-29 13:30N 40°39' W 074°07'2 0.5
2016-Sep-29 08:33N 40°39' W 074°04'3 2.8
2016-Sep-29 07:32N 40°38' W 074°08'0 0.0
2016-Sep-29 00:14N 40°38' W 074°08'0 0.0
2016-Sep-28 19:04N 40°38' W 074°08'1 0.2
2016-Sep-28 16:25N 40°39' W 074°07'0 0.0
2016-Sep-28 15:13N 40°39' W 074°07'0 0.0
2016-Sep-28 12:25N 40°39' W 074°07'1 0.1
2016-Sep-28 08:28N 40°38' W 074°08'0 0.0
2016-Sep-28 03:19N 40°38' W 074°08'0 0.0
2016-Sep-28 02:25N 40°38' W 074°08'0 0.1
2016-Sep-28 01:26N 40°38' W 074°08'3 1.7
2016-Sep-27 23:32N 40°42' W 074°08'3 0.8
2016-Sep-27 19:20N 40°38' W 074°08'11 2.2
2016-Sep-27 14:33N 40°47' W 073°60'4 0.3
2016-Sep-27 00:33N 40°48' W 074°05'9 2.2
2016-Sep-26 20:33N 40°39' W 074°09'1 1.1
2016-Sep-26 19:32N 40°38' W 074°08'0 0.0
2016-Sep-26 15:33N 40°38' W 074°08'0 0.0
2016-Sep-26 13:33N 40°38' W 074°08'3 1.3
2016-Sep-26 11:33N 40°39' W 074°11'7 0.7
2016-Sep-26 01:32N 40°32' W 074°15'4 0.9
2016-Sep-25 21:32N 40°35' W 074°12'5 1.2
2016-Sep-25 17:29N 40°38' W 074°08'0 0.0
2016-Sep-25 16:33N 40°38' W 074°08'0 0.0
2016-Sep-25 15:33N 40°38' W 074°08'0 0.0
2016-Sep-25 14:34N 40°38' W 074°08'0 0.0
2016-Sep-25 12:33N 40°38' W 074°08'0 0.5
2016-Sep-25 11:33N 40°39' W 074°08'8 3.6
2016-Sep-25 09:17N 40°32' W 074°15'1 0.7
2016-Sep-25 07:09N 40°33' W 074°14'8 3.1
2016-Sep-25 04:33N 40°39' W 074°07'5 1.2
2016-Sep-25 00:34N 40°41' W 074°01'5 2.7
2016-Sep-24 22:33N 40°46' W 073°57'0 0.0
2016-Sep-24 21:33N 40°46' W 073°57'6 3.1
2016-Sep-24 19:33N 40°40' W 074°00'1 1.0
2016-Sep-24 18:33N 40°39' W 074°01'5 4.9
2016-Sep-24 17:33N 40°38' W 074°08'0 0.0
2016-Sep-24 16:29N 40°38' W 074°08'1 0.3
2016-Sep-24 12:33N 40°39' W 074°09'2 1.1
2016-Sep-24 10:33N 40°39' W 074°06'1 1.5
2016-Sep-24 09:32N 40°38' W 074°08'0 0.0
2016-Sep-24 03:33N 40°38' W 074°08'0 0.0
2016-Sep-24 02:33N 40°38' W 074°08'2 2.2
2016-Sep-24 01:33N 40°39' W 074°05'1 1.4
2016-Sep-24 00:33N 40°39' W 074°07'2 0.5
2016-Sep-23 19:33N 40°40' W 074°04'2 1.2
2016-Sep-23 17:33N 40°39' W 074°07'1 0.7
2016-Sep-23 16:33N 40°38' W 074°08'0 0.0
2016-Sep-23 15:31N 40°38' W 074°08'0 0.0
2016-Sep-23 13:33N 40°38' W 074°08'0 0.1
2016-Sep-23 09:33N 40°39' W 074°08'0 0.1
2016-Sep-23 06:33N 40°38' W 074°08'0 0.0
2016-Sep-23 04:33N 40°38' W 074°08'4 3.5
2016-Sep-23 03:33N 40°42' W 074°09'0 0.1
2016-Sep-23 02:33N 40°42' W 074°09'5 4.9
2016-Sep-23 01:33N 40°38' W 074°12'3 3.5
2016-Sep-23 00:33N 40°38' W 074°08'0 0.0
2016-Sep-22 23:33N 40°38' W 074°08'2 0.5
2016-Sep-22 20:33N 40°40' W 074°08'2 0.2
2016-Sep-22 12:31N 40°38' W 074°08'0 0.0
2016-Sep-22 04:32N 40°38' W 074°08'5 4.4
2016-Sep-22 03:25N 40°35' W 074°13'8 2.9
2016-Sep-22 00:33N 40°36' W 074°02'5 5.2
2016-Sep-21 23:32N 40°38' W 074°08'3 3.1
2016-Sep-21 22:33N 40°41' W 074°09'3 0.5
2016-Sep-21 16:33N 40°39' W 074°11'3 0.4
2016-Sep-21 09:33N 40°38' W 074°08'0 0.0
2016-Sep-21 08:33N 40°38' W 074°08'0 0.0
2016-Sep-21 05:33N 40°38' W 074°08'0 0.0
2016-Sep-21 03:33N 40°38' W 074°08'2 1.6
2016-Sep-21 02:33N 40°39' W 074°06'  

Dump ship's entire track history